IQQ weather

Diego Aracena Airport
Iquique, Tarapac√° Region, Chile

Public forecast

Using degrees Celsius for public forecast. Weather courtesy of forecast.io.

Current aviation weather report (METAR) for Diego Aracena Airport

Retrieved 2020/07/07 01:00 UTC (56 minutes ago):

SCDA 070100Z 04003KT 010V070 9999 OVC029 17/10 Q1019

Aviation forecast (TAF) for Diego Aracena Airport

Retrieved 2020-07-07 00:00 UTC (2 hours ago):

TAF SCDA 062230Z 0700/0724 33004KT 9999 OVC020 TN15/0710Z TX18/0719Z TEMPO 0703/0708 7000 -DZ OVC012 BECMG 0714/0716 22017KT CAVOK